| time (UTC) | temp F | wind direction | speed MPH | gust MPH | rain 1hr in | rain 24hr in | rain mn in | humidity % | barometer mb |
| 20260903192931 | 85 | 100 | 11.0 | 15.0 | 0.00 | 0.00 | 0.00 | 82 | 1013.1 |
| 20260903192428 | 85 | 127 | 12.0 | 14.0 | 0.00 | 0.00 | 0.00 | 83 | 1013.4 |
| 20260903191923 | 84 | 130 | 12.0 | 14.0 | 0.00 | 0.00 | 0.00 | 85 | 1013.4 |
| 20260903191420 | 85 | 126 | 2.0 | 3.0 | 0.00 | 0.00 | 0.00 | 85 | 1013.4 |
| 20260903190919 | 85 | 129 | 8.0 | 10.0 | 0.00 | 0.00 | 0.00 | 85 | 1013.5 |
| 20260903190413 | 84 | 97 | 8.0 | 10.0 | 0.00 | 0.00 | 0.00 | 84 | 1013.6 |
| 20260903185913 | 84 | 125 | 12.0 | 17.0 | 0.00 | 0.00 | 0.00 | 84 | 1013.7 |
| 20260903185408 | 84 | 128 | 16.0 | 21.0 | 0.00 | 0.00 | 0.00 | 84 | 1013.8 |
| 20260903184903 | 84 | 129 | 5.0 | 5.0 | 0.00 | 0.00 | 0.00 | 85 | 1014.0 |
| 20260903184400 | 84 | 115 | 6.0 | 10.0 | 0.00 | 0.00 | 0.00 | 86 | 1014.0 |
| 20260903183855 | 84 | 103 | 11.0 | 12.0 | 0.00 | 0.00 | 0.00 | 86 | 1014.1 |
| 20260903183349 | 84 | 106 | 4.0 | 7.0 | 0.00 | 0.00 | 0.00 | 86 | 1014.3 |
| 20260903182848 | 85 | 121 | 2.0 | 3.0 | 0.00 | 0.00 | 0.00 | 84 | 1014.3 |
| 20260903182347 | 86 | 126 | 3.0 | 5.0 | 0.00 | 0.00 | 0.00 | 83 | 1014.5 |
| 20260903181842 | 85 | 79 | 4.0 | 7.0 | 0.00 | 0.00 | 0.00 | 82 | 1014.3 |
| 20260903181337 | 85 | 110 | 9.0 | 12.0 | 0.00 | 0.00 | 0.00 | 83 | 1014.3 |
| 20260903180832 | 85 | 88 | 10.0 | 14.0 | 0.00 | 0.00 | 0.00 | 83 | 1014.3 |
| 20260903180331 | 85 | 75 | 7.0 | 9.0 | 0.00 | 0.00 | 0.00 | 83 | 1014.4 |
| 20260903175826 | 85 | 123 | 11.0 | 14.0 | 0.00 | 0.00 | 0.00 | 83 | 1014.4 |
| 20260903175325 | 85 | 121 | 12.0 | 14.0 | 0.00 | 0.00 | 0.00 | 82 | 1014.4 |
| 20260903174820 | 85 | 133 | 7.0 | 9.0 | 0.00 | 0.00 | 0.00 | 83 | 1014.6 |
| 20260903174315 | 85 | 108 | 12.0 | 14.0 | 0.00 | 0.00 | 0.00 | 82 | 1014.5 |
| 20260903173814 | 85 | 127 | 9.0 | 12.0 | 0.00 | 0.00 | 0.00 | 83 | 1014.6 |
| 20260903173310 | 85 | 133 | 7.0 | 9.0 | 0.00 | 0.00 | 0.00 | 85 | 1014.8 |
| 20260903172806 | 85 | 122 | 7.0 | 10.0 | 0.00 | 0.00 | 0.00 | 85 | 1014.7 |
| 20260903172300 | 86 | 117 | 9.0 | 10.0 | 0.00 | 0.00 | 0.00 | 83 | 1015.0 |
| 20260903171749 | 85 | 127 | 10.0 | 12.0 | 0.00 | 0.00 | 0.00 | 81 | 1015.0 |
| 20260903171245 | 85 | 109 | 9.0 | 10.0 | 0.00 | 0.00 | 0.00 | 83 | 1015.1 |
| 20260903170743 | 84 | 133 | 5.0 | 7.0 | 0.00 | 0.00 | 0.00 | 83 | 1015.2 |
| 20260903170239 | 84 | 104 | 9.0 | 10.0 | 0.00 | 0.00 | 0.00 | 82 | 1014.9 |
| 20260903165737 | 84 | 145 | 5.0 | 5.0 | 0.00 | 0.00 | 0.00 | 85 | 1014.9 |
| 20260903165232 | 84 | 101 | 6.0 | 12.0 | 0.00 | 0.00 | 0.00 | 85 | 1015.1 |
| 20260903164726 | 84 | 122 | 9.0 | 12.0 | 0.00 | 0.00 | 0.00 | 85 | 1015.2 |
| 20260903164223 | 83 | 103 | 10.0 | 12.0 | 0.00 | 0.00 | 0.00 | 86 | 1015.2 |
| 20260903163722 | 83 | 87 | 12.0 | 14.0 | 0.00 | 0.00 | 0.00 | 87 | 1015.1 |
| 20260903163219 | 83 | 106 | 4.0 | 9.0 | 0.00 | 0.00 | 0.00 | 86 | 1015.2 |
| 20260903162714 | 84 | 138 | 7.0 | 10.0 | 0.00 | 0.00 | 0.00 | 82 | 1015.2 |
| 20260903162210 | 85 | 179 | 6.0 | 12.0 | 0.00 | 0.00 | 0.00 | 81 | 1015.2 |
| 20260903161706 | 85 | 125 | 6.0 | 7.0 | 0.00 | 0.00 | 0.00 | 80 | 1015.2 |
| 20260903161201 | 85 | 129 | 8.0 | 10.0 | 0.00 | 0.00 | 0.00 | 79 | 1015.2 |
| 20260903160657 | 85 | 126 | 7.0 | 9.0 | 0.00 | 0.00 | 0.00 | 78 | 1015.2 |
| 20260903160151 | 86 | 147 | 2.0 | 3.0 | 0.00 | 0.00 | 0.00 | 77 | 1015.3 |
| 20260903155649 | 86 | 166 | 3.0 | 3.0 | 0.00 | 0.00 | 0.00 | 76 | 1015.3 |
| 20260903155144 | 85 | 148 | 2.0 | 3.0 | 0.00 | 0.00 | 0.00 | 75 | 1015.2 |
| 20260903154640 | 85 | 176 | 1.0 | 2.0 | 0.00 | 0.00 | 0.00 | 75 | 1015.2 |
| 20260903154136 | 85 | 156 | 2.0 | 3.0 | 0.00 | 0.00 | 0.00 | 76 | 1015.2 |
| 20260903153632 | 85 | 106 | 1.0 | 2.0 | 0.00 | 0.00 | 0.00 | 77 | 1015.2 |
| 20260903153127 | 85 | 140 | 2.0 | 2.0 | 0.00 | 0.00 | 0.00 | 77 | 1015.2 |
| 20260903152623 | 85 | 154 | 4.0 | 5.0 | 0.00 | 0.00 | 0.00 | 77 | 1015.0 |
| 20260903152120 | 85 | 167 | 1.0 | 2.0 | 0.00 | 0.00 | 0.00 | 78 | 1014.9 |
| 20260903151619 | 85 | 210 | 4.0 | 5.0 | 0.00 | 0.00 | 0.00 | 78 | 1014.6 |
| 20260903151114 | 85 | 246 | 4.0 | 10.0 | 0.00 | 0.00 | 0.00 | 78 | 1014.5 |
| 20260903150614 | 85 | 182 | 7.0 | 9.0 | 0.00 | 0.00 | 0.00 | 78 | 1014.4 |
| 20260903150109 | 85 | 151 | 3.0 | 5.0 | 0.00 | 0.00 | 0.00 | 78 | 1014.4 |
| 20260903145608 | 84 | 162 | 7.0 | 10.0 | 0.00 | 0.00 | 0.00 | 79 | 1014.3 |
| 20260903145104 | 84 | 196 | 5.0 | 7.0 | 0.00 | 0.00 | 0.00 | 79 | 1014.1 |
| 20260903144602 | 84 | 252 | 7.0 | 9.0 | 0.00 | 0.00 | 0.00 | 79 | 1014.2 |
| 20260903144059 | 84 | 180 | 6.0 | 9.0 | 0.00 | 0.00 | 0.00 | 80 | 1014.1 |
| 20260903143555 | 84 | 188 | 4.0 | 9.0 | 0.00 | 0.00 | 0.00 | 80 | 1014.2 |
| 20260903143050 | 84 | 241 | 5.0 | 9.0 | 0.00 | 0.00 | 0.00 | 81 | 1014.0 |
| 20260903142545 | 83 | 210 | 7.0 | 9.0 | 0.00 | 0.00 | 0.00 | 82 | 1014.0 |
| 20260903142043 | 83 | 169 | 3.0 | 3.0 | 0.00 | 0.00 | 0.00 | 83 | 1013.9 |
| 20260903141537 | 82 | 169 | 2.0 | 3.0 | 0.00 | 0.00 | 0.00 | 85 | 1014.0 |
| 20260903141033 | 82 | 173 | 4.0 | 7.0 | 0.00 | 0.00 | 0.00 | 85 | 1014.1 |
| 20260903140528 | 82 | 138 | 5.0 | 5.0 | 0.00 | 0.00 | 0.00 | 86 | 1014.1 |
| 20260903140024 | 82 | 175 | 2.0 | 3.0 | 0.00 | 0.00 | 0.00 | 86 | 1014.2 |
| 20260903135519 | 81 | 157 | 2.0 | 3.0 | 0.00 | 0.00 | 0.00 | 87 | 1014.1 |
| 20260903135019 | 81 | 177 | 3.0 | 5.0 | 0.00 | 0.00 | 0.00 | 87 | 1014.2 |
| 20260903134519 | 81 | 164 | 0.0 | 0.0 | 0.00 | 0.00 | 0.00 | 88 | 1014.0 |
| 20260903134015 | 81 | 194 | 3.0 | 3.0 | 0.00 | 0.00 | 0.00 | 88 | 1014.2 |
| 20260903133512 | 81 | 160 | 2.0 | 5.0 | 0.00 | 0.00 | 0.00 | 88 | 1014.0 |
| 20260903133007 | 80 | 162 | 2.0 | 3.0 | 0.00 | 0.00 | 0.00 | 89 | 1014.2 |
| 20260903132503 | 80 | 159 | 5.0 | 9.0 | 0.00 | 0.00 | 0.00 | 89 | 1014.3 |
| 20260903132003 | 80 | 173 | 4.0 | 5.0 | 0.00 | 0.00 | 0.00 | 89 | 1014.3 |
| 20260903131458 | 80 | 193 | 2.0 | 3.0 | 0.00 | 0.00 | 0.00 | 89 | 1014.3 |
| 20260903130956 | 80 | 148 | 2.0 | 2.0 | 0.00 | 0.00 | 0.00 | 90 | 1014.1 |
| 20260903130452 | 80 | 172 | 1.0 | 3.0 | 0.00 | 0.00 | 0.00 | 90 | 1014.0 |
| 20260903125951 | 80 | 202 | 2.0 | 5.0 | 0.00 | 0.00 | 0.00 | 90 | 1014.2 |
| 20260903125450 | 80 | 159 | 2.0 | 2.0 | 0.00 | 0.00 | 0.00 | 90 | 1014.2 |
| 20260903124945 | 80 | 157 | 2.0 | 3.0 | 0.00 | 0.00 | 0.00 | 90 | 1014.1 |
| 20260903124440 | 79 | 173 | 4.0 | 5.0 | 0.00 | 0.00 | 0.00 | 91 | 1013.9 |
| 20260903123939 | 79 | 164 | 2.0 | 3.0 | 0.00 | 0.00 | 0.00 | 91 | 1013.9 |
| 20260903123434 | 79 | 155 | 4.0 | 7.0 | 0.00 | 0.00 | 0.00 | 91 | 1013.8 |
| 20260903122932 | 79 | 192 | 5.0 | 7.0 | 0.00 | 0.00 | 0.00 | 91 | 1013.7 |
| 20260903122427 | 79 | 172 | 2.0 | 3.0 | 0.00 | 0.00 | 0.00 | 91 | 1013.7 |
| 20260903121926 | 79 | 156 | 2.0 | 3.0 | 0.00 | 0.00 | 0.00 | 91 | 1013.7 |
| 20260903121421 | 79 | 176 | 3.0 | 5.0 | 0.00 | 0.00 | 0.00 | 91 | 1013.6 |
| 20260903120918 | 79 | 159 | 0.0 | 0.0 | 0.00 | 0.00 | 0.00 | 92 | 1013.7 |
| 20260903120416 | 79 | 170 | 2.0 | 3.0 | 0.00 | 0.00 | 0.00 | 92 | 1013.6 |
| 20260903115915 | 79 | 168 | 0.0 | 0.0 | 0.00 | 0.00 | 0.00 | 92 | 1013.6 |
| 20260903115415 | 78 | 164 | 0.0 | 2.0 | 0.00 | 0.00 | 0.00 | 92 | 1013.6 |
| 20260903114914 | 78 | 187 | 2.0 | 5.0 | 0.00 | 0.00 | 0.00 | 92 | 1013.6 |
| 20260903114410 | 78 | 156 | 0.0 | 0.0 | 0.00 | 0.00 | 0.00 | 92 | 1013.4 |
| 20260903113906 | 78 | 161 | 0.0 | 0.0 | 0.00 | 0.00 | 0.00 | 92 | 1013.5 |
| 20260903113401 | 78 | 158 | 2.0 | 3.0 | 0.00 | 0.00 | 0.00 | 92 | 1013.5 |
| 20260903112857 | 78 | 158 | 0.0 | 0.0 | 0.00 | 0.00 | 0.00 | 92 | 1013.6 |
| 20260903112352 | 78 | 130 | 2.0 | 5.0 | 0.00 | 0.00 | 0.00 | 92 | 1013.4 |
| 20260903111852 | 78 | 160 | 0.0 | 0.0 | 0.00 | 0.00 | 0.00 | 92 | 1013.5 |
| 20260903111351 | 77 | 159 | 0.0 | 0.0 | 0.00 | 0.00 | 0.00 | 92 | 1013.5 |
| 20260903110848 | 77 | 157 | 0.0 | 0.0 | 0.00 | 0.00 | 0.00 | 92 | 1013.7 |
| 20260903110343 | 77 | 145 | 0.0 | 0.0 | 0.00 | 0.00 | 0.00 | 92 | 1013.7 |
| 20260903105838 | 77 | 174 | 0.0 | 0.0 | 0.00 | 0.00 | 0.00 | 92 | 1013.5 |
| 20260903105333 | 77 | 146 | 0.0 | 0.0 | 0.00 | 0.00 | 0.00 | 92 | 1013.5 |
| 20260903104832 | 77 | 149 | 2.0 | 2.0 | 0.00 | 0.00 | 0.00 | 92 | 1013.6 |
| 20260903104327 | 77 | 167 | 0.0 | 0.0 | 0.00 | 0.00 | 0.00 | 92 | 1013.6 |
| 20260903103824 | 77 | 159 | 3.0 | 3.0 | 0.00 | 0.00 | 0.00 | 92 | 1013.4 |
| 20260903103320 | 77 | 145 | 1.0 | 2.0 | 0.00 | 0.00 | 0.00 | 92 | 1013.7 |
| 20260903102815 | 77 | 128 | 4.0 | 5.0 | 0.00 | 0.00 | 0.00 | 91 | 1013.7 |
| 20260903102309 | 77 | 131 | 3.0 | 3.0 | 0.00 | 0.00 | 0.00 | 91 | 1013.5 |
| 20260903101808 | 77 | 139 | 2.0 | 3.0 | 0.00 | 0.00 | 0.00 | 91 | 1013.7 |
| 20260903101304 | 76 | 136 | 0.0 | 0.0 | 0.00 | 0.00 | 0.00 | 91 | 1013.6 |
| 20260903100759 | 76 | 152 | 1.0 | 2.0 | 0.00 | 0.00 | 0.00 | 91 | 1013.6 |
| 20260903100253 | 76 | 140 | 2.0 | 2.0 | 0.00 | 0.00 | 0.00 | 91 | 1013.5 |
| 20260903095751 | 76 | 131 | 0.0 | 0.0 | 0.00 | 0.00 | 0.00 | 91 | 1013.6 |
| 20260903095245 | 76 | 138 | 1.0 | 2.0 | 0.00 | 0.00 | 0.00 | 91 | 1013.6 |
| 20260903094740 | 76 | 124 | 0.0 | 2.0 | 0.00 | 0.00 | 0.00 | 91 | 1013.6 |
| 20260903094236 | 76 | 142 | 0.0 | 0.0 | 0.00 | 0.00 | 0.00 | 90 | 1013.6 |
| 20260903093731 | 76 | 151 | 0.0 | 0.0 | 0.00 | 0.00 | 0.00 | 90 | 1013.5 |
| 20260903093226 | 76 | 161 | 1.0 | 2.0 | 0.00 | 0.00 | 0.00 | 91 | 1013.6 |
| 20260903092726 | 76 | 157 | 0.0 | 0.0 | 0.00 | 0.00 | 0.00 | 91 | 1013.3 |
| 20260903092220 | 76 | 152 | 0.0 | 0.0 | 0.00 | 0.00 | 0.00 | 90 | 1013.5 |
| 20260903091719 | 76 | 146 | 0.0 | 0.0 | 0.00 | 0.00 | 0.00 | 90 | 1013.7 |
| 20260903091214 | 76 | 125 | 0.0 | 0.0 | 0.00 | 0.00 | 0.00 | 90 | 1013.7 |
| 20260903090709 | 76 | 139 | 0.0 | 0.0 | 0.00 | 0.00 | 0.00 | 89 | 1013.6 |
| 20260903090208 | 76 | 140 | 0.0 | 0.0 | 0.00 | 0.00 | 0.00 | 89 | 1013.7 |
| 20260903085707 | 76 | 142 | 0.0 | 0.0 | 0.00 | 0.00 | 0.00 | 89 | 1013.5 |
| 20260903085203 | 76 | 127 | 0.0 | 0.0 | 0.00 | 0.00 | 0.00 | 88 | 1013.7 |
| 20260903084700 | 77 | 154 | 0.0 | 0.0 | 0.00 | 0.00 | 0.00 | 88 | 1013.6 |
| 20260903084155 | 77 | 149 | 0.0 | 0.0 | 0.00 | 0.00 | 0.00 | 88 | 1013.7 |
| 20260903083651 | 77 | 151 | 0.0 | 0.0 | 0.00 | 0.00 | 0.00 | 87 | 1013.6 |
| 20260903083151 | 77 | 159 | 0.0 | 0.0 | 0.00 | 0.00 | 0.00 | 87 | 1013.4 |
| 20260903082645 | 77 | 147 | 0.0 | 0.0 | 0.00 | 0.00 | 0.00 | 86 | 1013.5 |
| 20260903082141 | 77 | 168 | 1.0 | 2.0 | 0.00 | 0.00 | 0.00 | 86 | 1013.5 |
| 20260903081636 | 77 | 171 | 1.0 | 2.0 | 0.00 | 0.00 | 0.00 | 86 | 1013.7 |
| 20260903081132 | 77 | 165 | 1.0 | 2.0 | 0.00 | 0.00 | 0.00 | 86 | 1013.5 |
| 20260903080628 | 77 | 170 | 1.0 | 2.0 | 0.00 | 0.00 | 0.00 | 86 | 1013.6 |
| 20260903080126 | 77 | 160 | 2.0 | 2.0 | 0.00 | 0.00 | 0.00 | 86 | 1013.5 |
| 20260903075624 | 77 | 156 | 0.0 | 0.0 | 0.00 | 0.00 | 0.00 | 85 | 1013.8 |
| 20260903075120 | 77 | 155 | 0.0 | 0.0 | 0.00 | 0.00 | 0.00 | 85 | 1013.7 |
| 20260903074619 | 77 | 156 | 0.0 | 0.0 | 0.00 | 0.00 | 0.00 | 85 | 1013.8 |
| 20260903074113 | 77 | 157 | 0.0 | 0.0 | 0.00 | 0.00 | 0.00 | 85 | 1013.7 |
| 20260903073609 | 77 | 161 | 0.0 | 0.0 | 0.00 | 0.00 | 0.00 | 84 | 1013.7 |
| 20260903073105 | 77 | 152 | 0.0 | 0.0 | 0.00 | 0.00 | 0.00 | 84 | 1013.7 |
| 20260903072600 | 77 | 134 | 0.0 | 0.0 | 0.00 | 0.00 | 0.00 | 84 | 1013.8 |
| 20260903072056 | 78 | 150 | 0.0 | 0.0 | 0.00 | 0.00 | 0.00 | 83 | 1013.9 |
| 20260903071553 | 78 | 160 | 1.0 | 2.0 | 0.00 | 0.00 | 0.00 | 83 | 1014.0 |
| 20260903071048 | 78 | 154 | 0.0 | 0.0 | 0.00 | 0.00 | 0.00 | 83 | 1013.9 |
| 20260903070547 | 78 | 158 | 2.0 | 2.0 | 0.00 | 0.00 | 0.00 | 82 | 1013.6 |
| 20260903070043 | 78 | 153 | 1.0 | 2.0 | 0.00 | 0.00 | 0.00 | 83 | 1013.8 |
| 20260903065542 | 78 | 157 | 2.0 | 2.0 | 0.00 | 0.00 | 0.00 | 82 | 1013.8 |
| 20260903065037 | 78 | 162 | 2.0 | 3.0 | 0.00 | 0.00 | 0.00 | 82 | 1014.0 |
| 20260903064536 | 78 | 154 | 2.0 | 3.0 | 0.00 | 0.00 | 0.00 | 82 | 1013.9 |
| 20260903064033 | 78 | 138 | 3.0 | 3.0 | 0.00 | 0.00 | 0.00 | 82 | 1014.0 |
| 20260903063533 | 78 | 167 | 3.0 | 3.0 | 0.00 | 0.00 | 0.00 | 82 | 1014.0 |
| 20260903063029 | 78 | 169 | 4.0 | 5.0 | 0.00 | 0.00 | 0.00 | 83 | 1014.0 |
| 20260903062523 | 78 | 148 | 0.0 | 2.0 | 0.00 | 0.00 | 0.00 | 84 | 1013.8 |
| 20260903062019 | 78 | 156 | 2.0 | 3.0 | 0.00 | 0.00 | 0.00 | 84 | 1013.9 |
| 20260903061514 | 78 | 163 | 0.0 | 0.0 | 0.00 | 0.00 | 0.00 | 85 | 1014.0 |
| 20260903061009 | 78 | 186 | 2.0 | 3.0 | 0.00 | 0.00 | 0.00 | 85 | 1014.0 |
| 20260903060509 | 78 | 161 | 0.0 | 0.0 | 0.00 | 0.00 | 0.00 | 85 | 1014.0 |
| 20260903060004 | 78 | 168 | 2.0 | 3.0 | 0.00 | 0.00 | 0.00 | 85 | 1014.0 |
| 20260903055501 | 78 | 165 | 0.0 | 0.0 | 0.00 | 0.00 | 0.00 | 85 | 1014.0 |
| 20260903055000 | 78 | 156 | 0.0 | 0.0 | 0.00 | 0.00 | 0.00 | 85 | 1014.0 |
| 20260903054455 | 78 | 141 | 0.0 | 0.0 | 0.00 | 0.00 | 0.00 | 85 | 1014.0 |
| 20260903053951 | 78 | 157 | 0.0 | 0.0 | 0.00 | 0.00 | 0.00 | 85 | 1014.2 |
| 20260903053451 | 78 | 158 | 0.0 | 0.0 | 0.00 | 0.00 | 0.00 | 85 | 1014.0 |
| 20260903052948 | 78 | 145 | 0.0 | 0.0 | 0.00 | 0.00 | 0.00 | 85 | 1014.1 |
| 20260903052443 | 79 | 170 | 3.0 | 3.0 | 0.00 | 0.00 | 0.00 | 84 | 1014.2 |
| 20260903051939 | 78 | 160 | 2.0 | 3.0 | 0.00 | 0.00 | 0.00 | 85 | 1014.0 |
| 20260903051434 | 78 | 156 | 2.0 | 2.0 | 0.00 | 0.00 | 0.00 | 85 | 1014.1 |
| 20260903050930 | 78 | 139 | 3.0 | 3.0 | 0.00 | 0.00 | 0.00 | 86 | 1014.1 |
| 20260903050428 | 78 | 158 | 2.0 | 2.0 | 0.00 | 0.00 | 0.00 | 86 | 1014.1 |
| 20260903045922 | 78 | 148 | 0.0 | 0.0 | 0.00 | 0.00 | 0.00 | 87 | 1014.2 |
| 20260903045418 | 78 | 154 | 0.0 | 0.0 | 0.00 | 0.00 | 0.00 | 88 | 1014.2 |
| 20260903044915 | 78 | 157 | 0.0 | 0.0 | 0.00 | 0.00 | 0.00 | 88 | 1014.1 |
| 20260903044414 | 78 | 160 | 0.0 | 0.0 | 0.00 | 0.00 | 0.00 | 87 | 1014.1 |
| 20260903043911 | 79 | 151 | 2.0 | 3.0 | 0.00 | 0.00 | 0.00 | 87 | 1014.0 |
| 20260903043406 | 79 | 140 | 3.0 | 3.0 | 0.00 | 0.00 | 0.00 | 87 | 1013.9 |
| 20260903042904 | 79 | 117 | 4.0 | 5.0 | 0.00 | 0.00 | 0.00 | 86 | 1013.8 |
| 20260903042400 | 79 | 150 | 4.0 | 5.0 | 0.00 | 0.00 | 0.00 | 86 | 1013.9 |
| 20260903041856 | 79 | 138 | 3.0 | 3.0 | 0.00 | 0.00 | 0.00 | 86 | 1014.1 |
| 20260903041352 | 79 | 124 | 6.0 | 7.0 | 0.00 | 0.00 | 0.00 | 85 | 1013.9 |
| 20260903040848 | 79 | 129 | 9.0 | 10.0 | 0.00 | 0.00 | 0.00 | 84 | 1014.0 |
| 20260903040347 | 79 | 145 | 6.0 | 9.0 | 0.00 | 0.00 | 0.00 | 84 | 1013.9 |
| 20260903035843 | 80 | 158 | 2.0 | 3.0 | 0.00 | 0.00 | 0.00 | 83 | 1013.9 |
| 20260903035338 | 80 | 158 | 6.0 | 7.0 | 0.00 | 0.00 | 0.00 | 83 | 1014.0 |
| 20260903034833 | 80 | 115 | 6.0 | 7.0 | 0.00 | 0.00 | 0.00 | 83 | 1014.0 |
| 20260903034328 | 80 | 119 | 3.0 | 3.0 | 0.00 | 0.00 | 0.00 | 83 | 1014.1 |
| 20260903033823 | 80 | 101 | 7.0 | 9.0 | 0.00 | 0.00 | 0.00 | 83 | 1014.1 |
| 20260903033318 | 80 | 117 | 8.0 | 10.0 | 0.00 | 0.00 | 0.00 | 83 | 1014.1 |
| 20260903032818 | 80 | 130 | 10.0 | 14.0 | 0.00 | 0.00 | 0.00 | 83 | 1014.1 |
| 20260903032314 | 80 | 109 | 11.0 | 14.0 | 0.00 | 0.00 | 0.00 | 83 | 1014.1 |
| 20260903031809 | 80 | 113 | 7.0 | 9.0 | 0.00 | 0.00 | 0.00 | 83 | 1014.1 |
| 20260903031308 | 81 | 128 | 5.0 | 7.0 | 0.00 | 0.00 | 0.00 | 82 | 1013.9 |
| 20260903030805 | 81 | 138 | 9.0 | 10.0 | 0.00 | 0.00 | 0.00 | 82 | 1013.8 |
| 20260903030301 | 81 | 138 | 4.0 | 5.0 | 0.00 | 0.00 | 0.00 | 81 | 1013.7 |
| 20260903025756 | 81 | 130 | 6.0 | 7.0 | 0.00 | 0.00 | 0.00 | 80 | 1013.6 |
| 20260903025252 | 82 | 118 | 4.0 | 5.0 | 0.00 | 0.00 | 0.00 | 80 | 1013.4 |
| 20260903024752 | 82 | 134 | 5.0 | 7.0 | 0.00 | 0.00 | 0.00 | 80 | 1013.4 |
| 20260903024251 | 82 | 155 | 6.0 | 9.0 | 0.00 | 0.00 | 0.00 | 80 | 1013.4 |
| 20260903023747 | 82 | 113 | 8.0 | 10.0 | 0.00 | 0.00 | 0.00 | 79 | 1013.3 |
| 20260903023242 | 82 | 142 | 9.0 | 10.0 | 0.00 | 0.00 | 0.00 | 79 | 1013.4 |
| 20260903022737 | 82 | 140 | 7.0 | 10.0 | 0.00 | 0.00 | 0.00 | 79 | 1013.0 |
| 20260903022235 | 82 | 137 | 9.0 | 10.0 | 0.00 | 0.00 | 0.00 | 80 | 1013.3 |
| 20260903021730 | 82 | 110 | 9.0 | 14.0 | 0.00 | 0.00 | 0.00 | 80 | 1013.0 |
| 20260903021225 | 82 | 134 | 8.0 | 10.0 | 0.00 | 0.00 | 0.00 | 79 | 1012.8 |
| 20260903020725 | 83 | 142 | 8.0 | 10.0 | 0.00 | 0.00 | 0.00 | 78 | 1013.0 |
| 20260903020225 | 83 | 136 | 11.0 | 14.0 | 0.00 | 0.00 | 0.00 | 77 | 1013.1 |
| 20260903015721 | 83 | 176 | 8.0 | 12.0 | 0.00 | 0.00 | 0.00 | 76 | 1013.1 |
| 20260903015216 | 84 | 129 | 9.0 | 12.0 | 0.00 | 0.00 | 0.00 | 75 | 1013.0 |
| 20260903014712 | 84 | 125 | 10.0 | 12.0 | 0.00 | 0.00 | 0.00 | 74 | 1012.7 |
| 20260903014211 | 84 | 145 | 12.0 | 15.0 | 0.00 | 0.00 | 0.00 | 73 | 1012.5 |
| 20260903013711 | 84 | 96 | 9.0 | 14.0 | 0.00 | 0.00 | 0.00 | 71 | 1012.7 |
| 20260903013211 | 85 | 128 | 11.0 | 12.0 | 0.00 | 0.00 | 0.00 | 69 | 1012.6 |
| 20260903012709 | 85 | 132 | 7.0 | 9.0 | 0.00 | 0.00 | 0.00 | 68 | 1012.6 |
| 20260903012209 | 86 | 107 | 7.0 | 9.0 | 0.00 | 0.00 | 0.00 | 66 | 1012.5 |
| 20260903011704 | 87 | 119 | 10.0 | 12.0 | 0.00 | 0.00 | 0.00 | 64 | 1012.4 |
| 20260903011204 | 89 | 132 | 13.0 | 17.0 | 0.00 | 0.00 | 0.00 | 63 | 1012.3 |
| 20260903010659 | 89 | 119 | 11.0 | 12.0 | 0.00 | 0.00 | 0.00 | 61 | 1011.9 |
| 20260903010159 | 90 | 137 | 8.0 | 9.0 | 0.00 | 0.00 | 0.00 | 61 | 1011.8 |
| 20260903005658 | 90 | 117 | 12.0 | 15.0 | 0.00 | 0.00 | 0.00 | 60 | 1011.8 |
| 20260903005154 | 91 | 118 | 9.0 | 12.0 | 0.00 | 0.00 | 0.00 | 58 | 1011.6 |
| 20260903004649 | 91 | 134 | 11.0 | 14.0 | 0.00 | 0.00 | 0.00 | 56 | 1011.5 |
| 20260903004138 | 91 | 123 | 4.0 | 5.0 | 0.00 | 0.00 | 0.00 | 55 | 1011.7 |
| 20260903003634 | 90 | 143 | 7.0 | 9.0 | 0.00 | 0.00 | 0.00 | 57 | 1011.6 |
| 20260903003129 | 90 | 130 | 4.0 | 5.0 | 0.00 | 0.00 | 0.00 | 58 | 1011.3 |
| 20260903002624 | 91 | 155 | 0.0 | 0.0 | 0.00 | 0.00 | 0.00 | 55 | 1011.3 |
| 20260903002118 | 91 | 155 | 0.0 | 0.0 | 0.00 | 0.00 | 0.00 | 55 | 1011.3 |
| 20260903001613 | 92 | 153 | 0.0 | 0.0 | 0.00 | 0.00 | 0.00 | 53 | 1011.4 |
| 20260903001113 | 92 | 175 | 2.0 | 3.0 | 0.00 | 0.00 | 0.00 | 54 | 1011.4 |
| 20260903000609 | 92 | 139 | 2.0 | 2.0 | 0.00 | 0.00 | 0.00 | 53 | 1011.4 |
| 20260903000108 | 93 | 131 | 2.0 | 3.0 | 0.00 | 0.00 | 0.00 | 52 | 1011.4 |
| 20260902235606 | 93 | 160 | 0.0 | 0.0 | 0.00 | 0.00 | 0.00 | 50 | 1011.4 |
| 20260902235101 | 92 | 94 | 7.0 | 12.0 | 0.00 | 0.00 | 0.00 | 51 | 1011.5 |
| 20260902234556 | 92 | 157 | 4.0 | 7.0 | 0.00 | 0.00 | 0.00 | 53 | 1011.5 |
| 20260902234054 | 93 | 130 | 4.0 | 5.0 | 0.00 | 0.00 | 0.00 | 52 | 1011.3 |
| 20260902233550 | 95 | 118 | 4.0 | 5.0 | 0.00 | 0.00 | 0.00 | 51 | 1011.3 |
| 20260902233044 | 97 | 156 | 0.0 | 0.0 | 0.00 | 0.00 | 0.00 | 48 | 1011.3 |
| 20260902232543 | 97 | 172 | 0.0 | 0.0 | 0.00 | 0.00 | 0.00 | 47 | 1011.3 |
| 20260902232037 | 97 | 161 | 0.0 | 0.0 | 0.00 | 0.00 | 0.00 | 47 | 1011.3 |
| 20260902231533 | 97 | 160 | 0.0 | 0.0 | 0.00 | 0.00 | 0.00 | 47 | 1011.4 |
| 20260902231032 | 98 | 205 | 0.0 | 0.0 | 0.00 | 0.00 | 0.00 | 45 | 1011.3 |
| 20260902230527 | 98 | 158 | 0.0 | 0.0 | 0.00 | 0.00 | 0.00 | 46 | 1011.2 |
| 20260902230027 | 98 | 159 | 0.0 | 0.0 | 0.00 | 0.00 | 0.00 | 46 | 1011.1 |
| 20260902225522 | 98 | 157 | 0.0 | 0.0 | 0.00 | 0.00 | 0.00 | 45 | 1011.2 |
| 20260902225021 | 99 | 154 | 4.0 | 5.0 | 0.00 | 0.00 | 0.00 | 43 | 1011.2 |
| 20260902224520 | 99 | 157 | 0.0 | 0.0 | 0.00 | 0.00 | 0.00 | 41 | 1011.2 |
| 20260902224016 | 100 | 149 | 0.0 | 2.0 | 0.00 | 0.00 | 0.00 | 41 | 1011.1 |
| 20260902223513 | 100 | 157 | 0.0 | 0.0 | 0.00 | 0.00 | 0.00 | 42 | 1011.0 |
| 20260902223011 | 100 | 153 | 0.0 | 0.0 | 0.00 | 0.00 | 0.00 | 41 | 1011.1 |
| 20260902222510 | 100 | 196 | 4.0 | 5.0 | 0.00 | 0.00 | 0.00 | 40 | 1011.1 |
| 20260902222009 | 100 | 115 | 3.0 | 5.0 | 0.00 | 0.00 | 0.00 | 40 | 1011.2 |
| 20260902221509 | 102 | 137 | 3.0 | 5.0 | 0.00 | 0.00 | 0.00 | 39 | 1011.1 |
| 20260902221005 | 101 | 161 | 0.0 | 2.0 | 0.00 | 0.00 | 0.00 | 40 | 1011.2 |
| 20260902220505 | 100 | 149 | 0.0 | 0.0 | 0.00 | 0.00 | 0.00 | 41 | 1011.0 |
| 20260902215954 | 99 | 114 | 7.0 | 9.0 | 0.00 | 0.00 | 0.00 | 42 | 1011.1 |
| 20260902215450 | 102 | 86 | 3.0 | 5.0 | 0.00 | 0.00 | 0.00 | 40 | 1011.3 |
| 20260902214945 | 103 | 137 | 4.0 | 5.0 | 0.00 | 0.00 | 0.00 | 38 | 1011.2 |
| 20260902214445 | 102 | 124 | 2.0 | 3.0 | 0.00 | 0.00 | 0.00 | 38 | 1011.1 |
| 20260902213944 | 101 | 114 | 2.0 | 2.0 | 0.00 | 0.00 | 0.00 | 39 | 1011.5 |
| 20260902213441 | 103 | 138 | 3.0 | 5.0 | 0.00 | 0.00 | 0.00 | 38 | 1011.4 |
| 20260902212939 | 104 | 349 | 3.0 | 3.0 | 0.00 | 0.00 | 0.00 | 37 | 1011.4 |
| 20260902212435 | 104 | 122 | 4.0 | 5.0 | 0.00 | 0.00 | 0.00 | 37 | 1011.4 |
| 20260902211926 | 104 | 125 | 2.0 | 3.0 | 0.00 | 0.00 | 0.00 | 38 | 1011.4 |
| 20260902211421 | 104 | 43 | 2.0 | 5.0 | 0.00 | 0.00 | 0.00 | 37 | 1011.5 |
| 20260902210916 | 102 | 185 | 2.0 | 5.0 | 0.00 | 0.00 | 0.00 | 38 | 1011.4 |
| 20260902210416 | 101 | 173 | 0.0 | 2.0 | 0.00 | 0.00 | 0.00 | 39 | 1011.6 |
| 20260902205914 | 102 | 1 | 8.0 | 9.0 | 0.00 | 0.00 | 0.00 | 39 | 1011.8 |
| 20260902205409 | 101 | 307 | 5.0 | 7.0 | 0.00 | 0.00 | 0.00 | 39 | 1011.8 |
| 20260902204905 | 103 | 340 | 11.0 | 12.0 | 0.00 | 0.00 | 0.00 | 37 | 1011.9 |
| 20260902204405 | 103 | 159 | 2.0 | 2.0 | 0.00 | 0.00 | 0.00 | 37 | 1011.7 |
| 20260902203900 | 103 | 345 | 5.0 | 9.0 | 0.00 | 0.00 | 0.00 | 38 | 1012.0 |
| 20260902203355 | 101 | 327 | 6.0 | 9.0 | 0.00 | 0.00 | 0.00 | 38 | 1012.0 |
| 20260902202849 | 101 | 315 | 7.0 | 9.0 | 0.00 | 0.00 | 0.00 | 40 | 1012.1 |
| 20260902202345 | 103 | 338 | 4.0 | 5.0 | 0.00 | 0.00 | 0.00 | 38 | 1012.0 |
| 20260902201842 | 104 | 284 | 7.0 | 9.0 | 0.00 | 0.00 | 0.00 | 38 | 1012.2 |
| 20260902201336 | 104 | 111 | 3.0 | 3.0 | 0.00 | 0.00 | 0.00 | 38 | 1012.2 |
| 20260902200831 | 103 | 29 | 3.0 | 3.0 | 0.00 | 0.00 | 0.00 | 38 | 1012.2 |
| 20260902200326 | 103 | 327 | 3.0 | 3.0 | 0.00 | 0.00 | 0.00 | 38 | 1012.4 |
| 20260902195822 | 103 | 147 | 3.0 | 5.0 | 0.00 | 0.00 | 0.00 | 37 | 1012.4 |
| 20260902195321 | 103 | 85 | 5.0 | 7.0 | 0.00 | 0.00 | 0.00 | 38 | 1012.4 |
| 20260902194815 | 101 | 154 | 0.0 | 0.0 | 0.00 | 0.00 | 0.00 | 39 | 1012.7 |
| 20260902194310 | 102 | 179 | 2.0 | 3.0 | 0.00 | 0.00 | 0.00 | 39 | 1012.8 |
| 20260902193806 | 102 | 281 | 3.0 | 5.0 | 0.00 | 0.00 | 0.00 | 40 | 1013.0 |
| 20260902193301 | 101 | 162 | 1.0 | 2.0 | 0.00 | 0.00 | 0.00 | 40 | 1013.2 |